Time;durP1;ratioP1;P1;durP2;ratioP2;P2;SDS_P1;SDS_P2;PMS_P1;PMS_P2;Temp;Humidity;BMP_temperature;BMP_pressure;BME280_temperature;BME280_humidity;BME280_pressure;Samples;Min_cycle;Max_cycle;Signal;HPM_P1;HPM_P2
2022/03/29 00:01:08;;;;;;;14.37;7.37;;;8.50;99.90;;;;;;4981498;28;20462;-49
2022/03/29 00:03:34;;;;;;;14.60;7.77;;;8.40;99.90;;;;;;4981858;28;20486;-49
2022/03/29 00:06:01;;;;;;;18.03;8.03;;;8.30;99.90;;;;;;4981612;28;20439;-49
2022/03/29 00:08:28;;;;;;;20.23;8.60;;;8.40;99.90;;;;;;4981272;28;20812;-50
2022/03/29 00:10:56;;;;;;;19.40;10.20;;;8.40;99.90;;;;;;4981841;28;20538;-51
2022/03/29 00:13:23;;;;;;;16.63;8.77;;;8.20;99.90;;;;;;4981637;28;20450;-52
2022/03/29 00:15:49;;;;;;;17.20;9.17;;;8.10;99.90;;;;;;4981419;28;20490;-48
2022/03/29 00:18:16;;;;;;;20.20;8.80;;;8.10;99.90;;;;;;4981420;28;20467;-46
2022/03/29 00:20:43;;;;;;;12.60;7.70;;;8.10;99.90;;;;;;4981499;28;20517;-50
2022/03/29 00:23:09;;;;;;;15.83;9.40;;;8.00;99.90;;;;;;4984900;28;20454;-48
2022/03/29 00:25:36;;;;;;;16.13;9.93;;;8.00;99.90;;;;;;4985263;28;20431;-48
2022/03/29 00:28:05;;;;;;;14.23;9.23;;;8.00;99.90;;;;;;4981711;28;21034;-49
2022/03/29 00:30:31;;;;;;;20.53;9.97;;;7.90;99.90;;;;;;4981128;28;20509;-49
2022/03/29 00:32:58;;;;;;;19.40;8.80;;;7.90;99.90;;;;;;4981029;28;20477;-52
2022/03/29 00:35:24;;;;;;;15.63;8.13;;;8.00;99.90;;;;;;4980919;28;20470;-53
2022/03/29 00:37:53;;;;;;;15.67;8.60;;;8.10;99.90;;;;;;4980830;28;20486;-49
2022/03/29 00:40:20;;;;;;;13.90;7.97;;;8.10;99.90;;;;;;4980185;28;20498;-52
2022/03/29 00:42:47;;;;;;;15.23;9.53;;;8.10;99.90;;;;;;4984772;28;20443;-47
2022/03/29 00:45:15;;;;;;;16.00;8.87;;;8.20;99.90;;;;;;4984163;28;20471;-54
2022/03/29 00:47:42;;;;;;;14.03;7.37;;;8.30;99.90;;;;;;4980713;28;20904;-51
2022/03/29 00:50:10;;;;;;;22.67;9.00;;;8.30;99.90;;;;;;4980820;28;20951;-51
2022/03/29 00:52:40;;;;;;;15.97;8.43;;;8.20;99.90;;;;;;4981046;28;20435;-54
2022/03/29 00:55:07;;;;;;;15.17;7.77;;;8.20;99.90;;;;;;4980734;28;20475;-50
2022/03/29 00:57:35;;;;;;;15.13;7.80;;;8.10;99.90;;;;;;4980763;28;20995;-47
2022/03/29 01:00:02;;;;;;;8.30;6.20;;;8.10;99.90;;;;;;4980769;28;20800;-49
2022/03/29 01:02:30;;;;;;;16.00;7.80;;;8.00;99.90;;;;;;4981170;28;20479;-50
2022/03/29 01:04:58;;;;;;;14.60;7.60;;;8.10;99.90;;;;;;4981990;28;20892;-47
2022/03/29 01:07:27;;;;;;;12.77;7.27;;;8.10;99.90;;;;;;4982323;28;20478;-49
2022/03/29 01:09:54;;;;;;;19.77;8.57;;;8.00;99.90;;;;;;4986068;28;20495;-50
2022/03/29 01:12:22;;;;;;;10.80;6.73;;;8.00;99.90;;;;;;4982858;28;20972;-53
2022/03/29 01:14:48;;;;;;;13.53;7.80;;;8.10;99.90;;;;;;4980394;28;20503;-49
2022/03/29 01:20:05;;;;;;;13.70;7.40;;;8.10;99.90;;;;;;4980325;28;20435;-52
2022/03/29 01:22:34;;;;;;;18.37;8.23;;;8.10;99.90;;;;;;4980439;28;20451;-51
2022/03/29 01:25:00;;;;;;;14.20;7.30;;;8.00;99.90;;;;;;4979927;28;20960;-50
2022/03/29 01:27:31;;;;;;;10.97;7.10;;;8.00;99.90;;;;;;4980494;28;20529;-48
2022/03/29 01:29:59;;;;;;;15.60;7.77;;;8.00;99.90;;;;;;4980499;28;20470;-52
2022/03/29 01:32:29;;;;;;;13.03;7.47;;;8.00;99.90;;;;;;4980437;28;20517;-50
2022/03/29 01:34:56;;;;;;;14.30;8.20;;;8.00;99.90;;;;;;4982793;28;20537;-48
2022/03/29 01:37:23;;;;;;;11.70;6.93;;;8.10;99.90;;;;;;4984256;28;20423;-46
2022/03/29 01:39:51;;;;;;;13.27;7.60;;;8.20;99.90;;;;;;4980316;28;20513;-48
2022/03/29 01:42:19;;;;;;;14.60;7.00;;;8.20;99.90;;;;;;4979859;28;20470;-59
2022/03/29 01:44:45;;;;;;;15.30;9.60;;;8.20;99.90;;;;;;4980009;28;20829;-48
2022/03/29 01:47:12;;;;;;;16.57;9.47;;;8.20;99.90;;;;;;4979556;28;20470;-49
2022/03/29 01:49:39;;;;;;;12.03;7.90;;;8.20;99.90;;;;;;4979313;28;20467;-51
2022/03/29 01:52:07;;;;;;;17.83;8.70;;;8.10;99.90;;;;;;4979425;28;20501;-47
2022/03/29 01:54:34;;;;;;;17.57;9.07;;;8.20;99.90;;;;;;4979671;28;20446;-48
2022/03/29 01:57:02;;;;;;;12.47;7.60;;;8.20;99.90;;;;;;4978934;28;20996;-53
2022/03/29 02:00:30;;;;;;;22.53;9.50;;;8.20;99.90;;;;;;4978985;28;20912;-51
2022/03/29 02:02:16;;;;;;;16.10;8.63;;;8.20;99.90;;;;;;4979183;28;20453;-47
2022/03/29 02:04:43;;;;;;;16.83;10.00;;;8.30;99.90;;;;;;4979204;28;20496;-53
2022/03/29 02:07:09;;;;;;;17.50;8.00;;;8.20;99.90;;;;;;4979254;28;20775;-49
2022/03/29 02:09:36;;;;;;;13.63;7.83;;;8.10;99.90;;;;;;4980930;28;20517;-53
2022/03/29 02:12:05;;;;;;;16.67;9.60;;;8.10;99.90;;;;;;4981996;28;20454;-49
2022/03/29 02:14:34;;;;;;;16.10;8.90;;;8.10;99.90;;;;;;4982162;28;20471;-50
2022/03/29 02:17:02;;;;;;;15.37;9.30;;;8.20;99.90;;;;;;4981931;28;20575;-50
2022/03/29 02:19:29;;;;;;;18.40;10.70;;;8.20;99.90;;;;;;4981650;28;20537;-54
2022/03/29 02:21:56;;;;;;;18.60;9.60;;;8.30;99.90;;;;;;4981909;28;20869;-55
2022/03/29 02:24:22;;;;;;;16.27;10.07;;;8.30;99.90;;;;;;4981720;28;20824;-48
2022/03/29 02:26:49;;;;;;;20.43;10.00;;;8.30;99.90;;;;;;4981948;28;20439;-49
2022/03/29 02:29:17;;;;;;;15.43;9.20;;;8.30;99.90;;;;;;4981563;28;20447;-52
2022/03/29 02:31:44;;;;;;;18.50;10.57;;;8.30;99.90;;;;;;4981933;28;20471;-51
2022/03/29 02:34:10;;;;;;;15.30;9.87;;;8.20;99.90;;;;;;4982352;28;20459;-53
2022/03/29 02:36:37;;;;;;;18.00;8.40;;;8.10;99.90;;;;;;4981728;28;20498;-52
2022/03/29 02:39:04;;;;;;;20.10;10.17;;;8.10;99.90;;;;;;4981892;28;20446;-52
2022/03/29 02:41:30;;;;;;;17.00;9.30;;;8.20;99.90;;;;;;4981390;28;20447;-53
2022/03/29 02:43:57;;;;;;;19.27;10.40;;;8.20;99.90;;;;;;4981219;28;20498;-51
2022/03/29 02:46:25;;;;;;;18.67;10.10;;;8.10;99.90;;;;;;4981380;28;20438;-50
2022/03/29 02:48:52;;;;;;;17.20;9.27;;;8.10;99.90;;;;;;4980966;28;20482;-54
2022/03/29 02:51:18;;;;;;;20.60;11.03;;;8.10;99.90;;;;;;4981543;28;20446;-54
2022/03/29 02:53:45;;;;;;;23.80;11.40;;;8.20;99.90;;;;;;4981516;28;20475;-53
2022/03/29 02:56:11;;;;;;;17.10;9.50;;;8.20;99.90;;;;;;4981767;28;20497;-51
2022/03/29 02:58:38;;;;;;;15.43;10.53;;;8.10;99.90;;;;;;4981601;28;20478;-53
2022/03/29 03:01:05;;;;;;;20.93;9.60;;;8.10;99.90;;;;;;4980842;28;20477;-55
2022/03/29 03:03:33;;;;;;;19.60;11.00;;;8.10;99.90;;;;;;4983879;28;20451;-55
2022/03/29 03:06:00;;;;;;;20.63;10.70;;;8.20;99.90;;;;;;4985139;28;20438;-56
2022/03/29 03:08:27;;;;;;;18.03;11.00;;;8.20;99.90;;;;;;4984976;28;20454;-53
2022/03/29 03:10:54;;;;;;;18.07;10.13;;;8.20;99.90;;;;;;4985622;28;20467;-53
2022/03/29 03:13:20;;;;;;;17.60;10.03;;;8.20;99.90;;;;;;4984777;28;20442;-55
2022/03/29 03:15:49;;;;;;;16.03;11.17;;;8.10;99.90;;;;;;4985086;28;20554;-54
2022/03/29 03:18:16;;;;;;;16.63;9.20;;;8.10;99.90;;;;;;4985597;28;20474;-46
2022/03/29 03:20:44;;;;;;;20.53;10.37;;;8.00;99.90;;;;;;4985096;28;20467;-52
2022/03/29 03:23:14;;;;;;;18.60;10.47;;;8.00;99.90;;;;;;4985361;28;20459;-54
2022/03/29 03:25:41;;;;;;;21.67;10.43;;;8.10;99.90;;;;;;4985099;28;20435;-52
2022/03/29 03:28:08;;;;;;;13.83;8.67;;;8.20;99.90;;;;;;4984714;28;20897;-54
2022/03/29 03:30:34;;;;;;;19.90;10.07;;;8.20;99.90;;;;;;4985192;28;20458;-49
2022/03/29 03:33:01;;;;;;;27.67;11.80;;;8.20;99.90;;;;;;4985160;28;20563;-53
2022/03/29 03:35:28;;;;;;;24.90;11.70;;;8.30;99.90;;;;;;4984933;28;20560;-55
2022/03/29 03:37:56;;;;;;;16.47;9.93;;;8.20;99.90;;;;;;4985405;28;20474;-54
2022/03/29 03:40:22;;;;;;;23.60;8.87;;;8.20;99.90;;;;;;4985231;28;20446;-53
2022/03/29 03:42:49;;;;;;;15.40;10.17;;;8.10;99.90;;;;;;4985289;28;20482;-53
2022/03/29 03:45:16;;;;;;;15.63;9.90;;;8.10;99.90;;;;;;4985209;28;20880;-54
2022/03/29 03:47:42;;;;;;;18.30;11.10;;;8.00;99.90;;;;;;4984504;28;20451;-52
2022/03/29 03:50:10;;;;;;;16.70;9.90;;;8.10;99.90;;;;;;4984829;28;20494;-54
2022/03/29 03:52:37;;;;;;;21.10;10.53;;;8.00;99.90;;;;;;4984635;28;20473;-52
2022/03/29 03:55:07;;;;;;;20.93;10.73;;;8.00;99.90;;;;;;4984957;28;20542;-49
2022/03/29 03:57:34;;;;;;;20.13;11.33;;;8.10;99.90;;;;;;4984742;28;20530;-55
2022/03/29 04:00:01;;;;;;;19.50;10.83;;;8.10;99.90;;;;;;4984477;28;20533;-54
2022/03/29 04:02:28;;;;;;;20.87;11.53;;;8.10;99.90;;;;;;4984566;28;20479;-51
2022/03/29 04:04:54;;;;;;;18.97;11.13;;;8.00;99.90;;;;;;4984576;28;20454;-52
2022/03/29 04:07:21;;;;;;;18.50;10.03;;;8.00;99.90;;;;;;4984926;28;20439;-55
2022/03/29 04:09:48;;;;;;;19.17;11.80;;;8.00;99.90;;;;;;4985562;28;20900;-56
2022/03/29 04:12:17;;;;;;;22.00;11.97;;;7.90;99.90;;;;;;4985672;28;20477;-55
2022/03/29 04:14:44;;;;;;;30.43;13.60;;;7.80;99.90;;;;;;4985073;28;20451;-54
2022/03/29 04:17:11;;;;;;;19.87;9.83;;;7.80;99.90;;;;;;4984361;28;20526;-51
2022/03/29 04:19:40;;;;;;;19.67;11.60;;;7.80;99.90;;;;;;4984774;28;20501;-51
2022/03/29 04:22:07;;;;;;;28.90;11.60;;;7.90;99.90;;;;;;4984301;28;20804;-50
2022/03/29 04:24:33;;;;;;;24.90;11.57;;;8.00;99.90;;;;;;4983866;28;20454;-55
2022/03/29 04:27:00;;;;;;;19.20;11.63;;;8.00;99.90;;;;;;4983871;28;20447;-55
2022/03/29 04:29:28;;;;;;;24.17;12.27;;;8.10;99.90;;;;;;4983876;28;20447;-50
2022/03/29 04:31:55;;;;;;;21.80;11.73;;;8.00;99.90;;;;;;4983609;28;20513;-50
2022/03/29 04:34:22;;;;;;;18.57;11.57;;;8.00;99.90;;;;;;4984617;28;20533;-52
2022/03/29 04:36:48;;;;;;;19.80;11.30;;;7.90;99.90;;;;;;4985316;28;20486;-55
2022/03/29 04:39:15;;;;;;;24.70;11.10;;;7.70;99.90;;;;;;4986003;28;20529;-53
2022/03/29 04:41:42;;;;;;;19.73;10.97;;;7.70;99.90;;;;;;4985192;28;20447;-54
2022/03/29 04:44:10;;;;;;;18.37;7.70;;;7.60;99.90;;;;;;4985495;28;20471;-50
2022/03/29 04:46:38;;;;;;;20.60;10.60;;;7.60;99.90;;;;;;4984526;28;20459;-53
2022/03/29 04:49:05;;;;;;;21.73;10.63;;;7.50;99.90;;;;;;4985126;28;20482;-53
2022/03/29 04:51:34;;;;;;;19.13;11.50;;;7.60;99.90;;;;;;4985170;28;20455;-49
2022/03/29 04:54:01;;;;;;;17.97;9.37;;;7.70;99.90;;;;;;4984013;28;20447;-52
2022/03/29 04:56:29;;;;;;;22.67;12.90;;;7.70;99.90;;;;;;4983972;28;20490;-53
2022/03/29 04:58:55;;;;;;;23.90;12.87;;;7.70;99.90;;;;;;4984117;28;20491;-51
2022/03/29 05:01:22;;;;;;;22.87;10.80;;;7.70;99.90;;;;;;4983895;28;20470;-50
2022/03/29 05:03:50;;;;;;;21.63;12.20;;;7.80;99.90;;;;;;4983795;28;20467;-52
2022/03/29 05:06:17;;;;;;;16.27;11.10;;;7.90;99.90;;;;;;4983811;28;20471;-53
2022/03/29 05:08:44;;;;;;;19.00;10.43;;;7.90;99.90;;;;;;4983650;28;20485;-55
2022/03/29 05:11:11;;;;;;;22.10;13.30;;;7.90;99.90;;;;;;4984284;28;20816;-51
2022/03/29 05:13:37;;;;;;;18.03;10.80;;;7.90;99.90;;;;;;4983517;28;20454;-53
2022/03/29 05:16:05;;;;;;;24.73;14.50;;;7.90;99.90;;;;;;4982944;28;20820;-56
2022/03/29 05:18:31;;;;;;;19.87;9.90;;;7.90;99.90;;;;;;4983008;28;20537;-55
2022/03/29 05:20:59;;;;;;;18.73;11.20;;;8.00;99.90;;;;;;4983305;28;20983;-49
2022/03/29 05:23:26;;;;;;;23.87;12.83;;;8.00;99.90;;;;;;4983559;28;20486;-50
2022/03/29 05:25:52;;;;;;;25.50;11.80;;;7.90;99.90;;;;;;4983006;28;20455;-50
2022/03/29 05:28:19;;;;;;;22.83;11.37;;;8.00;99.90;;;;;;4982534;28;20467;-51
2022/03/29 05:30:46;;;;;;;18.27;9.50;;;8.00;99.90;;;;;;4982751;28;20435;-55
2022/03/29 05:33:15;;;;;;;23.70;12.93;;;8.00;99.90;;;;;;4982754;28;20459;-55
2022/03/29 05:35:43;;;;;;;26.63;13.40;;;8.00;99.90;;;;;;4983291;28;20868;-53
2022/03/29 05:38:12;;;;;;;30.07;12.67;;;8.00;99.90;;;;;;4982835;28;20455;-49
2022/03/29 05:40:39;;;;;;;22.97;12.37;;;8.00;99.90;;;;;;4982598;28;20475;-53
2022/03/29 05:43:10;;;;;;;22.50;11.07;;;8.00;99.90;;;;;;4982827;28;20533;-49
2022/03/29 05:45:37;;;;;;;19.83;11.43;;;8.00;99.90;;;;;;4997722;28;20506;-50
2022/03/29 05:50:49;;;;;;;27.50;13.20;;;8.00;99.90;;;;;;5015757;28;20614;-52
2022/03/29 05:53:17;;;;;;;26.30;13.67;;;8.00;99.90;;;;;;5011056;28;20458;-48
2022/03/29 05:55:45;;;;;;;19.27;10.80;;;8.00;99.90;;;;;;5010620;28;20482;-53
2022/03/29 05:58:15;;;;;;;24.30;13.10;;;8.00;99.90;;;;;;5004692;28;20450;-53
2022/03/29 06:00:43;;;;;;;25.00;11.60;;;8.00;99.90;;;;;;5008980;28;20428;-48
2022/03/29 06:03:10;;;;;;;35.00;13.50;;;7.90;99.90;;;;;;5000842;28;20433;-48
2022/03/29 06:05:41;;;;;;;26.50;12.50;;;7.90;99.90;;;;;;5001316;28;20447;-52
2022/03/29 06:08:08;;;;;;;18.43;9.60;;;7.80;99.90;;;;;;5002326;28;20439;-52
2022/03/29 06:10:38;;;;;;;29.23;13.13;;;7.80;99.90;;;;;;5016392;28;20458;-52
2022/03/29 06:13:06;;;;;;;24.73;14.17;;;7.90;99.90;;;;;;5006761;28;20470;-50
2022/03/29 06:15:32;;;;;;;23.23;11.13;;;7.80;99.90;;;;;;4996827;28;20550;-49
2022/03/29 06:17:59;;;;;;;23.53;13.27;;;7.80;99.90;;;;;;4998128;28;20497;-47
2022/03/29 06:20:26;;;;;;;25.60;13.07;;;7.80;99.90;;;;;;5007246;28;20473;-53
2022/03/29 06:22:52;;;;;;;33.20;12.37;;;7.80;99.90;;;;;;5008715;28;20483;-45
2022/03/29 06:25:19;;;;;;;22.13;11.50;;;7.90;99.90;;;;;;5015097;28;20442;-49
2022/03/29 06:27:47;;;;;;;23.60;11.57;;;7.90;99.90;;;;;;5014703;28;20454;-46
2022/03/29 06:30:14;;;;;;;30.57;12.37;;;8.00;99.90;;;;;;5014996;28;20449;-47
2022/03/29 06:32:49;;;;;;;24.07;13.90;;;8.10;99.90;;;;;;5014525;28;20453;-46
2022/03/29 06:35:17;;;;;;;23.87;11.93;;;8.00;99.90;;;;;;5013327;28;20445;-47
2022/03/29 06:37:44;;;;;;;29.83;13.83;;;8.00;99.90;;;;;;5012709;28;20469;-50
2022/03/29 06:40:12;;;;;;;30.23;13.40;;;8.00;99.90;;;;;;5013507;28;20454;-49
2022/03/29 06:42:39;;;;;;;24.47;12.53;;;8.00;99.90;;;;;;5014644;28;20514;-47
2022/03/29 06:45:09;;;;;;;39.17;12.43;;;8.00;99.90;;;;;;5015368;28;20474;-49
2022/03/29 06:47:38;;;;;;;23.13;11.60;;;8.10;99.90;;;;;;5015206;28;20434;-51
2022/03/29 06:50:06;;;;;;;27.10;11.90;;;8.20;99.90;;;;;;5015094;28;20434;-50
2022/03/29 06:52:35;;;;;;;31.37;11.93;;;8.10;99.90;;;;;;5015577;28;20945;-48
2022/03/29 06:55:02;;;;;;;26.67;11.80;;;8.20;99.90;;;;;;5015462;28;20442;-49
2022/03/29 06:57:29;;;;;;;20.97;11.57;;;8.10;99.90;;;;;;5014835;28;20482;-46
2022/03/29 06:59:56;;;;;;;18.50;9.97;;;8.20;99.90;;;;;;5014978;28;20481;-53
2022/03/29 07:02:24;;;;;;;19.23;11.57;;;8.30;99.90;;;;;;5014761;28;20493;-55
2022/03/29 07:04:50;;;;;;;22.03;11.20;;;8.40;99.90;;;;;;5015571;28;20445;-47
2022/03/29 07:07:20;;;;;;;28.03;14.10;;;8.30;99.90;;;;;;5014764;28;20466;-50
2022/03/29 07:12:31;;;;;;;18.30;10.03;;;8.30;99.90;;;;;;5015080;28;20461;-46
2022/03/29 07:14:58;;;;;;;17.23;9.63;;;8.40;99.90;;;;;;5015429;28;20446;-55
2022/03/29 07:17:26;;;;;;;22.00;9.73;;;8.30;99.90;;;;;;5015210;28;20505;-48
2022/03/29 07:19:53;;;;;;;28.03;12.93;;;8.30;99.90;;;;;;5015459;28;20437;-46
2022/03/29 07:22:23;;;;;;;21.77;11.00;;;8.30;99.90;;;;;;5015021;28;20446;-45
2022/03/29 07:24:50;;;;;;;28.23;12.60;;;8.40;99.90;;;;;;5014698;28;20477;-54
2022/03/29 07:27:17;;;;;;;28.43;11.47;;;8.50;99.90;;;;;;5014715;28;20429;-48
2022/03/29 07:29:44;;;;;;;26.80;9.47;;;8.60;99.90;;;;;;5014993;28;20509;-44
2022/03/29 07:32:12;;;;;;;20.37;10.70;;;8.60;99.90;;;;;;5014967;28;20442;-53
2022/03/29 07:34:40;;;;;;;20.50;9.80;;;8.60;99.90;;;;;;5014603;28;20477;-49
2022/03/29 07:37:09;;;;;;;15.10;8.20;;;8.60;99.90;;;;;;5014411;28;20470;-50
2022/03/29 07:39:38;;;;;;;21.47;9.37;;;8.70;99.90;;;;;;5014665;28;20441;-53
2022/03/29 07:42:06;;;;;;;17.47;9.27;;;8.70;99.90;;;;;;5014582;28;20458;-50
2022/03/29 07:44:32;;;;;;;17.17;7.90;;;8.80;99.90;;;;;;5014526;28;20504;-50
2022/03/29 07:47:00;;;;;;;15.77;9.40;;;9.00;99.90;;;;;;5014118;28;20466;-52
2022/03/29 07:49:29;;;;;;;19.30;9.40;;;9.20;99.90;;;;;;5017196;28;20449;-55
2022/03/29 07:51:57;;;;;;;22.60;9.37;;;9.40;99.90;;;;;;5017701;28;20500;-47
2022/03/29 07:54:23;;;;;;;16.20;9.10;;;9.50;99.90;;;;;;5017806;28;20445;-52
2022/03/29 07:56:52;;;;;;;21.40;10.30;;;9.60;99.90;;;;;;5017444;28;20477;-51
2022/03/29 07:59:19;;;;;;;23.83;9.67;;;9.70;99.90;;;;;;5017755;28;20418;-53
2022/03/29 08:01:46;;;;;;;16.60;8.70;;;9.80;99.90;;;;;;5017584;28;20441;-51
2022/03/29 08:04:12;;;;;;;20.43;9.37;;;9.90;99.90;;;;;;5017827;28;20480;-51
2022/03/29 08:06:39;;;;;;;18.10;9.03;;;9.70;99.90;;;;;;5017526;28;20468;-48
2022/03/29 08:09:07;;;;;;;16.43;9.03;;;9.70;99.90;;;;;;5017465;28;20473;-52
2022/03/29 08:11:36;;;;;;;20.20;11.03;;;9.90;99.90;;;;;;5017285;28;20446;-49
2022/03/29 08:14:04;;;;;;;22.73;10.77;;;9.90;99.90;;;;;;5017097;28;20470;-49
2022/03/29 08:16:33;;;;;;;20.90;11.30;;;9.90;99.90;;;;;;5017518;28;20464;-53
2022/03/29 08:19:00;;;;;;;18.13;9.90;;;10.00;99.90;;;;;;5017459;28;20453;-47
2022/03/29 08:24:20;;;;;;;18.47;8.77;;;9.90;99.90;;;;;;5017336;28;20436;-46
2022/03/29 08:26:49;;;;;;;14.73;8.70;;;10.40;99.90;;;;;;5017800;28;20434;-45
2022/03/29 08:29:16;;;;;;;16.17;7.30;;;11.10;99.90;;;;;;5018260;28;20449;-56
2022/03/29 08:31:44;;;;;;;17.87;8.33;;;12.10;99.90;;;;;;5018108;28;20500;-50
2022/03/29 08:34:11;;;;;;;14.60;7.70;;;13.00;99.90;;;;;;5017686;28;20522;-47
2022/03/29 08:36:38;;;;;;;15.80;8.57;;;13.80;99.50;;;;;;5017665;28;20450;-42
2022/03/29 08:39:05;;;;;;;18.37;8.50;;;14.30;96.60;;;;;;5017289;28;20436;-51
2022/03/29 08:41:37;;;;;;;16.60;8.13;;;14.60;94.50;;;;;;5018092;28;20481;-49
2022/03/29 08:44:04;;;;;;;14.30;8.40;;;14.80;92.50;;;;;;5017448;28;20442;-45
2022/03/29 08:46:35;;;;;;;21.80;8.53;;;15.00;91.40;;;;;;5017515;28;20466;-53
2022/03/29 08:49:03;;;;;;;17.30;8.00;;;15.50;88.80;;;;;;5017700;28;20438;-44
2022/03/29 08:51:31;;;;;;;11.77;7.80;;;15.90;84.90;;;;;;5017734;28;20457;-48
2022/03/29 08:53:59;;;;;;;23.47;9.70;;;16.10;80.70;;;;;;5017988;28;20472;-51
2022/03/29 08:56:26;;;;;;;13.33;8.27;;;16.10;79.20;;;;;;5017991;28;20473;-49
2022/03/29 08:58:54;;;;;;;16.57;9.50;;;17.00;74.90;;;;;;5017269;28;20513;-48
2022/03/29 09:01:23;;;;;;;13.40;8.20;;;18.00;71.00;;;;;;5016841;28;20438;-52
2022/03/29 09:04:12;;;;;;;14.73;9.27;;;18.60;66.60;;;;;;5017919;28;20474;-54
2022/03/29 09:07:01;;;;;;;15.43;8.03;;;19.20;62.50;;;;;;5017669;28;20446;-47
2022/03/29 09:09:29;;;;;;;13.50;8.43;;;19.40;60.60;;;;;;5017465;28;20473;-56
2022/03/29 09:11:57;;;;;;;16.20;9.77;;;19.30;59.60;;;;;;5017356;28;20512;-54
2022/03/29 09:14:28;;;;;;;19.43;8.73;;;19.10;59.80;;;;;;5017121;28;20442;-47
2022/03/29 09:16:55;;;;;;;13.93;9.33;;;18.80;58.10;;;;;;5016707;28;20422;-53
2022/03/29 09:19:25;;;;;;;16.80;7.80;;;18.40;58.90;;;;;;5017104;28;20453;-49
2022/03/29 09:21:54;;;;;;;23.97;9.03;;;18.30;58.10;;;;;;5016428;28;20453;-46
2022/03/29 09:24:21;;;;;;;14.77;9.63;;;17.80;59.00;;;;;;5016759;28;20513;-48
2022/03/29 09:26:52;;;;;;;12.67;8.27;;;17.90;58.90;;;;;;5017251;28;20484;-49
2022/03/29 09:29:20;;;;;;;25.63;10.00;;;17.60;58.80;;;;;;5017153;28;20497;-50
2022/03/29 09:32:03;;;;;;;16.50;8.97;;;17.40;58.70;;;;;;5016446;28;20477;-51
2022/03/29 09:34:30;;;;;;;16.53;8.20;;;17.50;58.40;;;;;;5015866;28;20450;-51
2022/03/29 09:36:57;;;;;;;11.87;9.00;;;18.10;58.00;;;;;;5016250;28;20464;-54
2022/03/29 09:39:36;;;;;;;14.87;7.90;;;18.10;57.50;;;;;;5016318;28;20430;-49
2022/03/29 09:42:05;;;;;;;15.80;11.07;;;17.40;58.00;;;;;;5016548;28;20442;-46
2022/03/29 09:44:39;;;;;;;16.10;9.53;;;16.40;60.00;;;;;;5016218;28;20426;-50
2022/03/29 09:47:09;;;;;;;16.10;8.90;;;16.10;62.80;;;;;;5015994;28;20453;-50
2022/03/29 09:49:57;;;;;;;14.93;8.47;;;16.60;61.60;;;;;;5015761;28;20466;-51
2022/03/29 09:52:26;;;;;;;14.13;8.47;;;16.90;59.50;;;;;;5015888;28;20465;-53
2022/03/29 09:55:13;;;;;;;17.20;9.43;;;17.20;58.50;;;;;;5016400;28;20466;-43
2022/03/29 09:57:45;;;;;;;12.17;8.53;;;17.90;58.10;;;;;;5015888;28;20470;-50
2022/03/29 10:00:15;;;;;;;14.60;8.87;;;18.40;56.80;;;;;;5016331;28;20453;-48
2022/03/29 10:02:45;;;;;;;15.03;9.37;;;18.40;55.60;;;;;;5015951;28;20838;-50
2022/03/29 10:05:13;;;;;;;12.37;9.07;;;18.00;55.60;;;;;;5016331;28;20454;-47
2022/03/29 10:07:44;;;;;;;11.50;8.57;;;18.30;56.20;;;;;;5016331;28;20523;-49
2022/03/29 10:10:12;;;;;;;12.30;9.07;;;18.40;55.30;;;;;;5015728;28;20430;-53
2022/03/29 10:12:39;;;;;;;15.77;10.03;;;18.50;54.60;;;;;;5015926;28;20430;-52
2022/03/29 10:15:07;;;;;;;16.23;8.63;;;18.10;54.80;;;;;;5016155;28;20473;-51
2022/03/29 10:17:35;;;;;;;14.20;8.73;;;18.20;54.80;;;;;;5016386;28;20470;-52
2022/03/29 10:20:06;;;;;;;14.20;10.07;;;18.20;54.40;;;;;;5016210;28;20446;-48
2022/03/29 10:22:36;;;;;;;15.13;8.90;;;18.10;55.00;;;;;;5015772;28;20504;-55
2022/03/29 10:25:04;;;;;;;13.33;7.50;;;17.80;55.40;;;;;;5016037;28;20452;-47
2022/03/29 10:27:32;;;;;;;11.10;7.60;;;17.80;55.50;;;;;;5016005;28;20462;-48
2022/03/29 10:29:59;;;;;;;13.80;7.83;;;17.50;54.30;;;;;;5015989;28;20517;-55
2022/03/29 10:32:32;;;;;;;14.97;8.07;;;17.50;54.10;;;;;;5015881;28;20774;-48
2022/03/29 10:35:08;;;;;;;11.33;6.77;;;17.90;53.60;;;;;;5015918;28;20461;-49
2022/03/29 10:37:55;;;;;;;15.37;9.47;;;17.80;53.00;;;;;;5015917;28;20540;-51
2022/03/29 10:40:39;;;;;;;12.37;7.37;;;18.00;53.00;;;;;;5015721;28;20457;-48
2022/03/29 10:43:32;;;;;;;13.30;7.73;;;18.30;52.10;;;;;;5015752;28;20426;-48
2022/03/29 10:45:59;;;;;;;16.13;9.03;;;18.20;51.70;;;;;;5010711;28;20465;-53
2022/03/29 10:48:27;;;;;;;12.43;8.40;;;18.10;52.40;;;;;;5015782;28;20434;-50
2022/03/29 10:51:00;;;;;;;12.80;8.87;;;18.30;53.30;;;;;;5016098;28;20462;-51
2022/03/29 10:53:29;;;;;;;14.97;9.60;;;18.30;53.50;;;;;;5015762;28;20446;-51
2022/03/29 10:56:16;;;;;;;11.27;8.33;;;18.00;54.50;;;;;;5015724;28;20497;-55
2022/03/29 10:59:14;;;;;;;14.07;8.50;;;17.70;54.50;;;;;;5015541;28;20545;-50
2022/03/29 11:01:42;;;;;;;20.17;8.93;;;17.00;54.30;;;;;;5015733;28;20473;-48
2022/03/29 11:04:20;;;;;;;14.33;8.70;;;16.10;55.00;;;;;;5015473;28;20446;-47
2022/03/29 11:07:14;;;;;;;14.10;8.07;;;15.80;56.30;;;;;;5015654;28;20478;-55
2022/03/29 11:09:44;;;;;;;15.67;7.90;;;15.80;56.50;;;;;;5015080;28;20441;-49
2022/03/29 11:12:37;;;;;;;12.63;7.17;;;15.70;55.00;;;;;;5015098;28;20457;-52
2022/03/29 11:15:47;;;;;;;12.60;8.60;;;15.40;55.00;;;;;;5014886;28;20442;-46
2022/03/29 11:18:48;;;;;;;38.60;9.03;;;15.10;55.70;;;;;;5014689;28;20516;-48
2022/03/29 11:21:37;;;;;;;13.83;7.90;;;15.00;56.40;;;;;;5014984;28;20439;-52
2022/03/29 11:24:08;;;;;;;14.13;7.07;;;15.00;55.70;;;;;;5016960;28;20505;-51
2022/03/29 11:26:36;;;;;;;11.40;6.60;;;14.60;56.20;;;;;;5018706;28;20476;-45
2022/03/29 11:29:06;;;;;;;13.37;8.23;;;14.50;57.20;;;;;;5018782;28;20457;-52
2022/03/29 11:31:35;;;;;;;9.60;6.30;;;14.70;57.60;;;;;;5019491;28;20438;-51
2022/03/29 11:34:03;;;;;;;11.10;6.13;;;15.00;56.00;;;;;;5018418;28;20473;-54
2022/03/29 11:36:32;;;;;;;15.83;7.77;;;14.70;55.00;;;;;;5018954;28;20498;-46
2022/03/29 11:39:00;;;;;;;13.57;6.73;;;14.70;54.10;;;;;;5018758;28;20505;-49
2022/03/29 11:41:32;;;;;;;10.60;5.20;;;14.50;52.80;;;;;;5018989;28;20463;-49
2022/03/29 11:44:00;;;;;;;14.40;6.20;;;14.30;52.20;;;;;;5018706;28;20446;-49
2022/03/29 11:46:44;;;;;;;8.70;5.00;;;14.20;52.00;;;;;;5018656;28;20426;-54
2022/03/29 11:49:11;;;;;;;11.43;5.93;;;14.10;53.00;;;;;;5019248;28;20432;-50
2022/03/29 11:51:38;;;;;;;10.23;5.27;;;13.90;52.70;;;;;;5018474;28;20531;-49
2022/03/29 11:54:06;;;;;;;11.00;5.53;;;13.80;54.30;;;;;;5018109;28;20465;-50
2022/03/29 11:56:38;;;;;;;8.20;4.90;;;13.80;54.40;;;;;;5018292;28;20477;-53
2022/03/29 11:59:07;;;;;;;12.57;7.93;;;13.90;53.90;;;;;;5018504;28;20501;-55
2022/03/29 12:01:35;;;;;;;11.57;6.27;;;14.10;54.40;;;;;;5017677;28;20482;-50
2022/03/29 12:04:05;;;;;;;9.90;5.63;;;14.10;53.80;;;;;;5018393;28;20497;-52
2022/03/29 12:06:33;;;;;;;9.83;5.53;;;14.00;54.00;;;;;;5018210;28;20505;-50
2022/03/29 12:09:03;;;;;;;6.40;5.03;;;13.90;53.80;;;;;;5018094;28;20438;-52
2022/03/29 12:11:33;;;;;;;10.33;5.57;;;13.70;54.30;;;;;;5018083;28;20438;-54
2022/03/29 12:14:04;;;;;;;10.40;4.70;;;13.70;55.20;;;;;;5018078;28;20481;-49
2022/03/29 12:16:33;;;;;;;6.47;3.80;;;13.80;54.50;;;;;;5018638;28;20434;-52
2022/03/29 12:19:01;;;;;;;12.80;4.50;;;13.90;53.90;;;;;;5017598;28;20501;-55
2022/03/29 12:21:28;;;;;;;7.63;4.17;;;14.20;53.50;;;;;;5017952;28;20457;-49
2022/03/29 12:24:01;;;;;;;9.07;4.00;;;14.40;52.40;;;;;;5018349;28;20459;-49
2022/03/29 12:26:31;;;;;;;6.73;3.97;;;14.30;51.80;;;;;;5018109;28;20476;-51
2022/03/29 12:28:58;;;;;;;7.43;4.30;;;14.10;52.40;;;;;;5017738;28;20453;-54
2022/03/29 12:31:28;;;;;;;7.43;4.77;;;14.20;52.90;;;;;;5017765;28;20450;-46
2022/03/29 12:33:56;;;;;;;8.00;4.70;;;14.20;52.60;;;;;;5017414;28;20530;-51
2022/03/29 12:36:24;;;;;;;11.03;4.20;;;14.40;52.70;;;;;;5016799;28;20542;-54
2022/03/29 12:38:53;;;;;;;10.37;3.97;;;14.40;52.20;;;;;;5017648;28;20478;-47
2022/03/29 12:41:38;;;;;;;6.80;4.00;;;14.60;51.90;;;;;;5017613;28;20472;-54
2022/03/29 12:44:08;;;;;;;7.13;4.63;;;14.70;51.90;;;;;;5017447;28;20450;-50
2022/03/29 12:46:37;;;;;;;8.40;4.03;;;14.70;51.60;;;;;;5017139;28;20466;-56
2022/03/29 12:49:05;;;;;;;8.90;4.80;;;14.80;53.10;;;;;;5017544;28;20442;-46
2022/03/29 12:51:33;;;;;;;5.20;3.63;;;14.60;53.00;;;;;;5017118;28;20442;-48
2022/03/29 12:54:03;;;;;;;10.63;4.80;;;14.20;53.00;;;;;;5017781;28;20500;-47
2022/03/29 12:56:33;;;;;;;6.47;3.43;;;14.10;53.20;;;;;;5017075;28;20450;-52
2022/03/29 12:59:00;;;;;;;8.97;4.57;;;14.10;53.20;;;;;;5017364;28;20481;-48
2022/03/29 13:01:30;;;;;;;6.83;4.40;;;14.10;53.80;;;;;;5017882;28;20454;-47